sensor_id;sensor_type;location;lat;lon;timestamp;P1;durP1;ratioP1;P2;durP2;ratioP2
8604;SDS011;4340;52.516;13.468;2022-09-03T00:00:54;4.20;;;2.50;;
8604;SDS011;4340;52.516;13.468;2022-09-03T00:03:25;2.23;;;2.13;;
8604;SDS011;4340;52.516;13.468;2022-09-03T00:06:00;2.03;;;1.83;;
8604;SDS011;4340;52.516;13.468;2022-09-03T00:08:35;2.93;;;2.27;;
8604;SDS011;4340;52.516;13.468;2022-09-03T00:11:09;6.10;;;4.23;;
8604;SDS011;4340;52.516;13.468;2022-09-03T00:13:41;2.70;;;2.50;;
8604;SDS011;4340;52.516;13.468;2022-09-03T00:16:12;1.83;;;1.73;;
8604;SDS011;4340;52.516;13.468;2022-09-03T00:18:44;2.13;;;2.00;;
8604;SDS011;4340;52.516;13.468;2022-09-03T00:21:13;1.67;;;1.57;;
8604;SDS011;4340;52.516;13.468;2022-09-03T00:23:44;4.00;;;2.00;;
8604;SDS011;4340;52.516;13.468;2022-09-03T00:26:16;3.93;;;1.90;;
8604;SDS011;4340;52.516;13.468;2022-09-03T00:28:50;2.33;;;1.70;;
8604;SDS011;4340;52.516;13.468;2022-09-03T00:31:24;2.90;;;1.90;;
8604;SDS011;4340;52.516;13.468;2022-09-03T00:33:55;2.40;;;1.77;;
8604;SDS011;4340;52.516;13.468;2022-09-03T00:36:26;1.80;;;1.70;;
8604;SDS011;4340;52.516;13.468;2022-09-03T00:38:58;4.80;;;1.93;;
8604;SDS011;4340;52.516;13.468;2022-09-03T00:41:26;1.80;;;1.70;;
8604;SDS011;4340;52.516;13.468;2022-09-03T00:44:11;1.60;;;1.50;;
8604;SDS011;4340;52.516;13.468;2022-09-03T00:46:50;1.80;;;1.70;;
8604;SDS011;4340;52.516;13.468;2022-09-03T00:49:24;1.93;;;1.83;;
8604;SDS011;4340;52.516;13.468;2022-09-03T00:52:01;2.33;;;2.23;;
8604;SDS011;4340;52.516;13.468;2022-09-03T00:54:36;2.07;;;1.87;;
8604;SDS011;4340;52.516;13.468;2022-09-03T00:57:14;3.00;;;1.80;;
8604;SDS011;4340;52.516;13.468;2022-09-03T00:59:51;1.93;;;1.60;;
8604;SDS011;4340;52.516;13.468;2022-09-03T01:02:25;4.27;;;1.87;;
8604;SDS011;4340;52.516;13.468;2022-09-03T01:05:02;2.13;;;1.63;;
8604;SDS011;4340;52.516;13.468;2022-09-03T01:07:36;4.53;;;1.63;;
8604;SDS011;4340;52.516;13.468;2022-09-03T01:10:15;3.17;;;1.83;;
8604;SDS011;4340;52.516;13.468;2022-09-03T01:12:54;3.13;;;1.63;;
8604;SDS011;4340;52.516;13.468;2022-09-03T01:15:28;9.23;;;1.70;;
8604;SDS011;4340;52.516;13.468;2022-09-03T01:18:04;4.50;;;1.93;;
8604;SDS011;4340;52.516;13.468;2022-09-03T01:20:42;1.73;;;1.63;;
8604;SDS011;4340;52.516;13.468;2022-09-03T01:23:26;1.83;;;1.73;;
8604;SDS011;4340;52.516;13.468;2022-09-03T01:26:22;4.30;;;2.10;;
8604;SDS011;4340;52.516;13.468;2022-09-03T01:29:01;1.93;;;1.80;;
8604;SDS011;4340;52.516;13.468;2022-09-03T01:31:36;1.70;;;1.60;;
8604;SDS011;4340;52.516;13.468;2022-09-03T01:34:13;1.90;;;1.70;;
8604;SDS011;4340;52.516;13.468;2022-09-03T01:36:50;2.80;;;2.03;;
8604;SDS011;4340;52.516;13.468;2022-09-03T01:39:25;1.80;;;1.70;;
8604;SDS011;4340;52.516;13.468;2022-09-03T01:42:00;1.90;;;1.80;;
8604;SDS011;4340;52.516;13.468;2022-09-03T01:44:45;2.00;;;1.90;;
8604;SDS011;4340;52.516;13.468;2022-09-03T01:47:36;2.07;;;1.90;;
8604;SDS011;4340;52.516;13.468;2022-09-03T01:50:17;1.67;;;1.57;;
8604;SDS011;4340;52.516;13.468;2022-09-03T01:52:54;3.43;;;1.77;;
8604;SDS011;4340;52.516;13.468;2022-09-03T01:55:30;3.80;;;1.77;;
8604;SDS011;4340;52.516;13.468;2022-09-03T01:57:59;3.13;;;1.77;;
8604;SDS011;4340;52.516;13.468;2022-09-03T02:00:32;1.87;;;1.77;;
8604;SDS011;4340;52.516;13.468;2022-09-03T02:03:02;6.43;;;2.00;;
8604;SDS011;4340;52.516;13.468;2022-09-03T02:05:31;1.93;;;1.83;;
8604;SDS011;4340;52.516;13.468;2022-09-03T02:08:00;3.80;;;1.93;;
8604;SDS011;4340;52.516;13.468;2022-09-03T02:10:29;2.10;;;2.00;;
8604;SDS011;4340;52.516;13.468;2022-09-03T02:13:04;2.20;;;1.60;;
8604;SDS011;4340;52.516;13.468;2022-09-03T02:15:35;1.70;;;1.60;;
8604;SDS011;4340;52.516;13.468;2022-09-03T02:18:05;4.10;;;2.10;;
8604;SDS011;4340;52.516;13.468;2022-09-03T02:20:35;1.90;;;1.80;;
8604;SDS011;4340;52.516;13.468;2022-09-03T02:23:03;4.03;;;2.13;;
8604;SDS011;4340;52.516;13.468;2022-09-03T02:25:31;4.30;;;1.70;;
8604;SDS011;4340;52.516;13.468;2022-09-03T02:28:02;1.70;;;1.60;;
8604;SDS011;4340;52.516;13.468;2022-09-03T02:30:30;1.93;;;1.83;;
8604;SDS011;4340;52.516;13.468;2022-09-03T02:43:50;3.50;;;2.03;;
8604;SDS011;4340;52.516;13.468;2022-09-03T02:45:12;2.00;;;1.90;;
8604;SDS011;4340;52.516;13.468;2022-09-03T02:48:09;1.90;;;1.80;;
8604;SDS011;4340;52.516;13.468;2022-09-03T02:57:47;25.13;;;2.10;;
8604;SDS011;4340;52.516;13.468;2022-09-03T03:00:22;1.83;;;1.73;;
8604;SDS011;4340;52.516;13.468;2022-09-03T03:06:16;2.27;;;2.17;;
8604;SDS011;4340;52.516;13.468;2022-09-03T03:09:03;6.60;;;2.30;;
8604;SDS011;4340;52.516;13.468;2022-09-03T03:11:31;2.13;;;1.87;;
8604;SDS011;4340;52.516;13.468;2022-09-03T03:16:42;2.70;;;1.90;;
8604;SDS011;4340;52.516;13.468;2022-09-03T03:19:13;4.07;;;2.10;;
8604;SDS011;4340;52.516;13.468;2022-09-03T03:21:42;2.57;;;2.37;;
8604;SDS011;4340;52.516;13.468;2022-09-03T03:24:17;3.17;;;2.27;;
8604;SDS011;4340;52.516;13.468;2022-09-03T03:26:59;2.67;;;2.33;;
8604;SDS011;4340;52.516;13.468;2022-09-03T03:29:57;2.30;;;2.20;;
8604;SDS011;4340;52.516;13.468;2022-09-03T03:32:25;4.03;;;1.90;;
8604;SDS011;4340;52.516;13.468;2022-09-03T03:34:52;2.50;;;2.10;;
8604;SDS011;4340;52.516;13.468;2022-09-03T03:37:48;2.90;;;2.23;;
8604;SDS011;4340;52.516;13.468;2022-09-03T03:40:50;2.83;;;2.63;;
8604;SDS011;4340;52.516;13.468;2022-09-03T03:43:46;2.60;;;2.03;;
8604;SDS011;4340;52.516;13.468;2022-09-03T03:50:01;3.97;;;2.27;;
8604;SDS011;4340;52.516;13.468;2022-09-03T03:52:34;3.07;;;2.30;;
8604;SDS011;4340;52.516;13.468;2022-09-03T03:55:19;2.60;;;2.23;;
8604;SDS011;4340;52.516;13.468;2022-09-03T03:58:29;3.50;;;2.20;;
8604;SDS011;4340;52.516;13.468;2022-09-03T04:01:21;3.23;;;2.30;;
8604;SDS011;4340;52.516;13.468;2022-09-03T04:04:10;5.70;;;2.73;;
8604;SDS011;4340;52.516;13.468;2022-09-03T04:06:49;4.80;;;2.50;;
8604;SDS011;4340;52.516;13.468;2022-09-03T04:12:42;2.67;;;2.50;;
8604;SDS011;4340;52.516;13.468;2022-09-03T04:15:11;3.90;;;2.57;;
8604;SDS011;4340;52.516;13.468;2022-09-03T04:17:39;2.60;;;2.40;;
8604;SDS011;4340;52.516;13.468;2022-09-03T04:20:21;2.60;;;2.50;;
8604;SDS011;4340;52.516;13.468;2022-09-03T04:23:05;3.47;;;2.70;;
8604;SDS011;4340;52.516;13.468;2022-09-03T04:26:27;5.80;;;2.83;;
8604;SDS011;4340;52.516;13.468;2022-09-03T04:29:17;3.10;;;2.53;;
8604;SDS011;4340;52.516;13.468;2022-09-03T04:35:20;2.80;;;2.57;;
8604;SDS011;4340;52.516;13.468;2022-09-03T04:37:57;2.77;;;2.53;;
8604;SDS011;4340;52.516;13.468;2022-09-03T04:40:42;3.20;;;3.00;;
8604;SDS011;4340;52.516;13.468;2022-09-03T04:43:27;3.10;;;2.80;;
8604;SDS011;4340;52.516;13.468;2022-09-03T04:52:30;3.17;;;2.87;;
8604;SDS011;4340;52.516;13.468;2022-09-03T04:55:14;5.80;;;2.90;;
8604;SDS011;4340;52.516;13.468;2022-09-03T04:57:57;4.30;;;3.20;;
8604;SDS011;4340;52.516;13.468;2022-09-03T05:04:12;3.50;;;2.63;;
8604;SDS011;4340;52.516;13.468;2022-09-03T05:06:53;5.90;;;2.80;;
8604;SDS011;4340;52.516;13.468;2022-09-03T05:09:39;3.67;;;3.00;;
8604;SDS011;4340;52.516;13.468;2022-09-03T05:14:27;4.67;;;3.13;;
8604;SDS011;4340;52.516;13.468;2022-09-03T05:15:33;3.40;;;3.20;;
8604;SDS011;4340;52.516;13.468;2022-09-03T05:18:02;3.43;;;3.23;;
8604;SDS011;4340;52.516;13.468;2022-09-03T05:21:23;4.80;;;2.83;;
8604;SDS011;4340;52.516;13.468;2022-09-03T05:26:51;3.30;;;3.10;;
8604;SDS011;4340;52.516;13.468;2022-09-03T05:29:38;4.43;;;3.03;;
8604;SDS011;4340;52.516;13.468;2022-09-03T05:36:35;3.23;;;2.67;;
8604;SDS011;4340;52.516;13.468;2022-09-03T05:39:22;4.47;;;3.13;;
8604;SDS011;4340;52.516;13.468;2022-09-03T05:42:09;3.30;;;3.00;;
8604;SDS011;4340;52.516;13.468;2022-09-03T05:44:55;3.30;;;2.97;;
8604;SDS011;4340;52.516;13.468;2022-09-03T05:47:22;3.63;;;2.80;;
8604;SDS011;4340;52.516;13.468;2022-09-03T05:49:48;3.10;;;2.80;;
8604;SDS011;4340;52.516;13.468;2022-09-03T05:52:15;3.07;;;2.80;;
8604;SDS011;4340;52.516;13.468;2022-09-03T05:54:43;4.00;;;3.23;;
8604;SDS011;4340;52.516;13.468;2022-09-03T05:57:12;7.13;;;2.87;;
8604;SDS011;4340;52.516;13.468;2022-09-03T05:59:39;8.00;;;3.33;;
8604;SDS011;4340;52.516;13.468;2022-09-03T06:02:05;3.20;;;3.00;;
8604;SDS011;4340;52.516;13.468;2022-09-03T06:04:32;3.70;;;3.40;;
8604;SDS011;4340;52.516;13.468;2022-09-03T06:06:58;4.00;;;3.00;;
8604;SDS011;4340;52.516;13.468;2022-09-03T06:09:25;6.93;;;3.27;;
8604;SDS011;4340;52.516;13.468;2022-09-03T06:11:51;3.07;;;2.87;;
8604;SDS011;4340;52.516;13.468;2022-09-03T06:14:20;4.10;;;3.10;;
8604;SDS011;4340;52.516;13.468;2022-09-03T06:16:47;4.47;;;3.07;;
8604;SDS011;4340;52.516;13.468;2022-09-03T06:19:16;3.17;;;2.60;;
8604;SDS011;4340;52.516;13.468;2022-09-03T06:21:44;3.63;;;2.53;;
8604;SDS011;4340;52.516;13.468;2022-09-03T06:24:13;5.77;;;3.07;;
8604;SDS011;4340;52.516;13.468;2022-09-03T06:26:40;4.53;;;2.97;;
8604;SDS011;4340;52.516;13.468;2022-09-03T06:29:08;4.10;;;2.80;;
8604;SDS011;4340;52.516;13.468;2022-09-03T06:31:36;5.93;;;3.10;;
8604;SDS011;4340;52.516;13.468;2022-09-03T06:34:03;2.60;;;2.47;;
8604;SDS011;4340;52.516;13.468;2022-09-03T06:36:30;7.83;;;2.87;;
8604;SDS011;4340;52.516;13.468;2022-09-03T06:38:57;8.73;;;2.70;;
8604;SDS011;4340;52.516;13.468;2022-09-03T06:41:24;4.30;;;2.50;;
8604;SDS011;4340;52.516;13.468;2022-09-03T06:43:53;3.13;;;2.90;;
8604;SDS011;4340;52.516;13.468;2022-09-03T06:46:26;2.90;;;2.70;;
8604;SDS011;4340;52.516;13.468;2022-09-03T06:48:55;6.27;;;2.60;;
8604;SDS011;4340;52.516;13.468;2022-09-03T06:51:22;3.67;;;2.90;;
8604;SDS011;4340;52.516;13.468;2022-09-03T06:53:51;4.13;;;2.90;;
8604;SDS011;4340;52.516;13.468;2022-09-03T06:56:21;2.90;;;2.33;;
8604;SDS011;4340;52.516;13.468;2022-09-03T06:58:51;2.67;;;2.50;;
8604;SDS011;4340;52.516;13.468;2022-09-03T07:01:20;2.97;;;2.63;;
8604;SDS011;4340;52.516;13.468;2022-09-03T07:03:51;3.67;;;2.60;;
8604;SDS011;4340;52.516;13.468;2022-09-03T07:06:22;5.43;;;2.47;;
8604;SDS011;4340;52.516;13.468;2022-09-03T07:08:49;2.87;;;2.67;;
8604;SDS011;4340;52.516;13.468;2022-09-03T07:11:17;3.97;;;2.50;;
8604;SDS011;4340;52.516;13.468;2022-09-03T07:13:46;6.33;;;2.60;;
8604;SDS011;4340;52.516;13.468;2022-09-03T07:16:14;6.37;;;2.70;;
8604;SDS011;4340;52.516;13.468;2022-09-03T07:18:42;3.90;;;2.50;;
8604;SDS011;4340;52.516;13.468;2022-09-03T07:21:11;4.23;;;2.30;;
8604;SDS011;4340;52.516;13.468;2022-09-03T07:23:40;2.90;;;2.70;;
8604;SDS011;4340;52.516;13.468;2022-09-03T07:26:08;2.90;;;2.70;;
8604;SDS011;4340;52.516;13.468;2022-09-03T07:28:37;4.20;;;2.60;;
8604;SDS011;4340;52.516;13.468;2022-09-03T07:31:06;4.03;;;2.30;;
8604;SDS011;4340;52.516;13.468;2022-09-03T07:33:34;2.60;;;2.40;;
8604;SDS011;4340;52.516;13.468;2022-09-03T07:36:01;2.70;;;2.50;;
8604;SDS011;4340;52.516;13.468;2022-09-03T07:38:30;2.60;;;2.33;;
8604;SDS011;4340;52.516;13.468;2022-09-03T07:40:58;3.77;;;2.57;;
8604;SDS011;4340;52.516;13.468;2022-09-03T07:43:25;4.13;;;2.50;;
8604;SDS011;4340;52.516;13.468;2022-09-03T07:45:52;2.23;;;2.03;;
8604;SDS011;4340;52.516;13.468;2022-09-03T07:48:19;4.00;;;2.40;;
8604;SDS011;4340;52.516;13.468;2022-09-03T07:50:46;3.27;;;2.40;;
8604;SDS011;4340;52.516;13.468;2022-09-03T07:53:15;4.07;;;2.63;;
8604;SDS011;4340;52.516;13.468;2022-09-03T07:55:44;3.70;;;2.40;;
8604;SDS011;4340;52.516;13.468;2022-09-03T07:58:13;4.30;;;2.40;;
8604;SDS011;4340;52.516;13.468;2022-09-03T08:00:40;3.73;;;2.27;;
8604;SDS011;4340;52.516;13.468;2022-09-03T08:03:07;4.20;;;2.43;;
8604;SDS011;4340;52.516;13.468;2022-09-03T08:05:35;4.50;;;2.47;;
8604;SDS011;4340;52.516;13.468;2022-09-03T08:08:02;2.97;;;2.27;;
8604;SDS011;4340;52.516;13.468;2022-09-03T08:10:29;6.30;;;2.17;;
8604;SDS011;4340;52.516;13.468;2022-09-03T08:12:59;2.90;;;2.70;;
8604;SDS011;4340;52.516;13.468;2022-09-03T08:15:27;2.50;;;2.30;;
8604;SDS011;4340;52.516;13.468;2022-09-03T08:17:53;2.63;;;2.43;;
8604;SDS011;4340;52.516;13.468;2022-09-03T08:20:20;3.53;;;2.50;;
8604;SDS011;4340;52.516;13.468;2022-09-03T08:22:46;10.80;;;2.50;;
8604;SDS011;4340;52.516;13.468;2022-09-03T08:25:13;2.70;;;2.50;;
8604;SDS011;4340;52.516;13.468;2022-09-03T08:27:40;2.93;;;2.50;;
8604;SDS011;4340;52.516;13.468;2022-09-03T08:30:07;2.83;;;2.40;;
8604;SDS011;4340;52.516;13.468;2022-09-03T08:32:37;6.10;;;2.53;;
8604;SDS011;4340;52.516;13.468;2022-09-03T08:35:04;5.10;;;2.77;;
8604;SDS011;4340;52.516;13.468;2022-09-03T08:37:33;4.70;;;2.33;;
8604;SDS011;4340;52.516;13.468;2022-09-03T08:39:59;3.03;;;2.27;;
8604;SDS011;4340;52.516;13.468;2022-09-03T08:42:29;5.90;;;2.50;;
8604;SDS011;4340;52.516;13.468;2022-09-03T08:45:05;5.97;;;2.20;;
8604;SDS011;4340;52.516;13.468;2022-09-03T08:47:33;2.87;;;2.10;;
8604;SDS011;4340;52.516;13.468;2022-09-03T08:50:09;2.93;;;2.70;;
8604;SDS011;4340;52.516;13.468;2022-09-03T08:52:42;2.50;;;2.40;;
8604;SDS011;4340;52.516;13.468;2022-09-03T08:55:15;3.00;;;2.00;;
8604;SDS011;4340;52.516;13.468;2022-09-03T08:57:46;5.20;;;2.63;;
8604;SDS011;4340;52.516;13.468;2022-09-03T09:00:14;6.47;;;2.30;;
8604;SDS011;4340;52.516;13.468;2022-09-03T09:02:47;2.47;;;2.07;;
8604;SDS011;4340;52.516;13.468;2022-09-03T09:05:23;2.40;;;2.30;;
8604;SDS011;4340;52.516;13.468;2022-09-03T09:07:59;5.87;;;2.67;;
8604;SDS011;4340;52.516;13.468;2022-09-03T09:10:34;8.50;;;2.30;;
8604;SDS011;4340;52.516;13.468;2022-09-03T09:13:08;2.00;;;1.83;;
8604;SDS011;4340;52.516;13.468;2022-09-03T09:15:47;3.50;;;2.27;;
8604;SDS011;4340;52.516;13.468;2022-09-03T09:18:19;2.43;;;2.10;;
8604;SDS011;4340;52.516;13.468;2022-09-03T09:20:56;2.27;;;2.07;;
8604;SDS011;4340;52.516;13.468;2022-09-03T09:23:33;2.00;;;1.90;;
8604;SDS011;4340;52.516;13.468;2022-09-03T09:26:03;2.30;;;2.17;;
8604;SDS011;4340;52.516;13.468;2022-09-03T09:28:35;3.40;;;2.13;;
8604;SDS011;4340;52.516;13.468;2022-09-03T09:31:03;4.43;;;2.10;;
8604;SDS011;4340;52.516;13.468;2022-09-03T09:33:34;2.17;;;2.07;;
8604;SDS011;4340;52.516;13.468;2022-09-03T09:36:01;2.47;;;2.27;;
8604;SDS011;4340;52.516;13.468;2022-09-03T09:38:31;10.87;;;2.40;;
8604;SDS011;4340;52.516;13.468;2022-09-03T09:41:07;2.17;;;2.07;;
8604;SDS011;4340;52.516;13.468;2022-09-03T09:43:34;4.70;;;2.10;;
8604;SDS011;4340;52.516;13.468;2022-09-03T09:46:05;3.00;;;2.10;;
8604;SDS011;4340;52.516;13.468;2022-09-03T09:48:38;3.03;;;2.07;;
8604;SDS011;4340;52.516;13.468;2022-09-03T09:51:13;5.50;;;1.90;;
8604;SDS011;4340;52.516;13.468;2022-09-03T09:53:44;2.10;;;1.90;;
8604;SDS011;4340;52.516;13.468;2022-09-03T09:56:19;1.97;;;1.87;;
8604;SDS011;4340;52.516;13.468;2022-09-03T09:58:47;4.83;;;1.53;;
8604;SDS011;4340;52.516;13.468;2022-09-03T10:01:17;5.03;;;1.93;;
8604;SDS011;4340;52.516;13.468;2022-09-03T10:03:51;3.30;;;2.00;;
8604;SDS011;4340;52.516;13.468;2022-09-03T10:06:21;2.47;;;1.80;;
8604;SDS011;4340;52.516;13.468;2022-09-03T10:09:07;1.60;;;1.50;;
8604;SDS011;4340;52.516;13.468;2022-09-03T10:11:36;1.90;;;1.80;;
8604;SDS011;4340;52.516;13.468;2022-09-03T10:14:05;4.00;;;2.13;;
8604;SDS011;4340;52.516;13.468;2022-09-03T10:16:38;2.17;;;2.00;;
8604;SDS011;4340;52.516;13.468;2022-09-03T10:19:15;3.00;;;2.30;;
8604;SDS011;4340;52.516;13.468;2022-09-03T10:21:44;2.40;;;1.87;;
8604;SDS011;4340;52.516;13.468;2022-09-03T10:24:24;2.50;;;2.20;;
8604;SDS011;4340;52.516;13.468;2022-09-03T10:26:58;2.33;;;1.80;;
8604;SDS011;4340;52.516;13.468;2022-09-03T10:29:26;1.83;;;1.73;;
8604;SDS011;4340;52.516;13.468;2022-09-03T10:31:56;2.20;;;1.70;;
8604;SDS011;4340;52.516;13.468;2022-09-03T10:34:33;3.57;;;1.60;;
8604;SDS011;4340;52.516;13.468;2022-09-03T10:37:11;1.67;;;1.57;;
8604;SDS011;4340;52.516;13.468;2022-09-03T10:42:38;2.10;;;1.93;;
8604;SDS011;4340;52.516;13.468;2022-09-03T10:45:15;2.30;;;1.80;;
8604;SDS011;4340;52.516;13.468;2022-09-03T10:47:55;2.73;;;1.70;;
8604;SDS011;4340;52.516;13.468;2022-09-03T10:50:45;4.40;;;2.00;;
8604;SDS011;4340;52.516;13.468;2022-09-03T10:53:19;2.20;;;1.87;;
8604;SDS011;4340;52.516;13.468;2022-09-03T10:55:56;8.70;;;1.87;;
8604;SDS011;4340;52.516;13.468;2022-09-03T10:58:34;2.33;;;1.63;;
8604;SDS011;4340;52.516;13.468;2022-09-03T11:01:12;5.23;;;1.80;;
8604;SDS011;4340;52.516;13.468;2022-09-03T11:03:46;2.70;;;1.70;;
8604;SDS011;4340;52.516;13.468;2022-09-03T11:06:19;4.40;;;1.77;;
8604;SDS011;4340;52.516;13.468;2022-09-03T11:08:50;3.10;;;1.93;;
8604;SDS011;4340;52.516;13.468;2022-09-03T11:11:25;3.77;;;1.70;;
8604;SDS011;4340;52.516;13.468;2022-09-03T11:13:57;2.03;;;1.90;;
8604;SDS011;4340;52.516;13.468;2022-09-03T11:16:29;2.50;;;1.87;;
8604;SDS011;4340;52.516;13.468;2022-09-03T11:19:00;1.70;;;1.60;;
8604;SDS011;4340;52.516;13.468;2022-09-03T11:21:30;2.73;;;1.70;;
8604;SDS011;4340;52.516;13.468;2022-09-03T11:24:01;2.00;;;1.80;;
8604;SDS011;4340;52.516;13.468;2022-09-03T11:26:34;3.80;;;1.77;;
8604;SDS011;4340;52.516;13.468;2022-09-03T11:29:03;2.17;;;1.93;;
8604;SDS011;4340;52.516;13.468;2022-09-03T11:31:37;3.50;;;1.80;;
8604;SDS011;4340;52.516;13.468;2022-09-03T11:34:12;4.53;;;2.00;;
8604;SDS011;4340;52.516;13.468;2022-09-03T11:36:42;2.03;;;1.93;;
8604;SDS011;4340;52.516;13.468;2022-09-03T11:39:12;5.43;;;2.00;;
8604;SDS011;4340;52.516;13.468;2022-09-03T11:41:43;2.23;;;1.77;;
8604;SDS011;4340;52.516;13.468;2022-09-03T11:44:21;1.90;;;1.80;;
8604;SDS011;4340;52.516;13.468;2022-09-03T11:46:54;2.93;;;1.80;;
8604;SDS011;4340;52.516;13.468;2022-09-03T11:49:26;7.87;;;1.97;;
8604;SDS011;4340;52.516;13.468;2022-09-03T11:51:58;2.00;;;1.90;;
8604;SDS011;4340;52.516;13.468;2022-09-03T11:54:26;5.33;;;1.90;;
8604;SDS011;4340;52.516;13.468;2022-09-03T11:57:04;2.07;;;1.50;;
8604;SDS011;4340;52.516;13.468;2022-09-03T11:59:35;3.03;;;1.77;;
8604;SDS011;4340;52.516;13.468;2022-09-03T12:02:03;3.33;;;2.00;;
8604;SDS011;4340;52.516;13.468;2022-09-03T12:04:41;3.60;;;1.97;;
8604;SDS011;4340;52.516;13.468;2022-09-03T12:07:17;1.73;;;1.50;;
8604;SDS011;4340;52.516;13.468;2022-09-03T12:10:02;3.73;;;2.00;;
8604;SDS011;4340;52.516;13.468;2022-09-03T12:12:39;3.63;;;1.60;;
8604;SDS011;4340;52.516;13.468;2022-09-03T12:15:21;1.50;;;1.50;;
8604;SDS011;4340;52.516;13.468;2022-09-03T12:18:01;5.90;;;1.73;;
8604;SDS011;4340;52.516;13.468;2022-09-03T12:20:44;1.73;;;1.63;;
8604;SDS011;4340;52.516;13.468;2022-09-03T12:23:24;1.60;;;1.50;;
8604;SDS011;4340;52.516;13.468;2022-09-03T12:25:52;2.57;;;2.00;;
8604;SDS011;4340;52.516;13.468;2022-09-03T12:28:20;3.57;;;1.60;;
8604;SDS011;4340;52.516;13.468;2022-09-03T12:30:48;2.03;;;1.93;;
8604;SDS011;4340;52.516;13.468;2022-09-03T12:33:18;4.80;;;1.77;;
8604;SDS011;4340;52.516;13.468;2022-09-03T12:35:54;2.30;;;1.70;;
8604;SDS011;4340;52.516;13.468;2022-09-03T12:38:23;2.07;;;1.90;;
8604;SDS011;4340;52.516;13.468;2022-09-03T12:40:50;1.80;;;1.70;;
8604;SDS011;4340;52.516;13.468;2022-09-03T12:43:18;7.13;;;2.03;;
8604;SDS011;4340;52.516;13.468;2022-09-03T12:45:45;2.13;;;1.60;;
8604;SDS011;4340;52.516;13.468;2022-09-03T12:48:15;1.93;;;1.83;;
8604;SDS011;4340;52.516;13.468;2022-09-03T12:50:43;2.90;;;1.83;;
8604;SDS011;4340;52.516;13.468;2022-09-03T12:53:11;1.37;;;1.37;;
8604;SDS011;4340;52.516;13.468;2022-09-03T12:55:42;1.77;;;1.60;;
8604;SDS011;4340;52.516;13.468;2022-09-03T12:58:12;1.40;;;1.40;;
8604;SDS011;4340;52.516;13.468;2022-09-03T13:00:45;1.47;;;1.37;;
8604;SDS011;4340;52.516;13.468;2022-09-03T13:03:16;1.60;;;1.50;;
8604;SDS011;4340;52.516;13.468;2022-09-03T13:05:45;2.20;;;1.50;;
8604;SDS011;4340;52.516;13.468;2022-09-03T13:08:17;1.73;;;1.20;;
8604;SDS011;4340;52.516;13.468;2022-09-03T13:10:50;2.70;;;1.40;;
8604;SDS011;4340;52.516;13.468;2022-09-03T13:13:20;4.20;;;1.80;;
8604;SDS011;4340;52.516;13.468;2022-09-03T13:15:55;1.73;;;1.63;;
8604;SDS011;4340;52.516;13.468;2022-09-03T13:18:32;2.10;;;1.80;;
8604;SDS011;4340;52.516;13.468;2022-09-03T13:21:09;1.90;;;1.70;;
8604;SDS011;4340;52.516;13.468;2022-09-03T13:23:48;1.80;;;1.70;;
8604;SDS011;4340;52.516;13.468;2022-09-03T13:26:29;1.60;;;1.60;;
8604;SDS011;4340;52.516;13.468;2022-09-03T13:29:15;1.90;;;1.80;;
8604;SDS011;4340;52.516;13.468;2022-09-03T13:31:50;4.70;;;1.60;;
8604;SDS011;4340;52.516;13.468;2022-09-03T13:34:21;1.80;;;1.70;;
8604;SDS011;4340;52.516;13.468;2022-09-03T13:36:53;2.80;;;1.47;;
8604;SDS011;4340;52.516;13.468;2022-09-03T13:39:25;2.30;;;1.70;;
8604;SDS011;4340;52.516;13.468;2022-09-03T13:41:57;5.63;;;1.73;;
8604;SDS011;4340;52.516;13.468;2022-09-03T13:44:34;2.40;;;1.90;;
8604;SDS011;4340;52.516;13.468;2022-09-03T13:47:07;1.60;;;1.50;;
8604;SDS011;4340;52.516;13.468;2022-09-03T13:49:39;1.40;;;1.40;;
8604;SDS011;4340;52.516;13.468;2022-09-03T13:52:29;3.43;;;1.70;;
8604;SDS011;4340;52.516;13.468;2022-09-03T13:55:06;4.93;;;1.80;;
8604;SDS011;4340;52.516;13.468;2022-09-03T13:57:39;1.83;;;1.60;;
8604;SDS011;4340;52.516;13.468;2022-09-03T14:00:21;1.93;;;1.80;;
8604;SDS011;4340;52.516;13.468;2022-09-03T14:02:51;1.73;;;1.53;;
8604;SDS011;4340;52.516;13.468;2022-09-03T14:05:23;1.73;;;1.50;;
8604;SDS011;4340;52.516;13.468;2022-09-03T14:08:03;5.13;;;1.73;;
8604;SDS011;4340;52.516;13.468;2022-09-03T14:10:43;2.10;;;1.53;;
8604;SDS011;4340;52.516;13.468;2022-09-03T14:13:21;5.93;;;1.70;;
8604;SDS011;4340;52.516;13.468;2022-09-03T14:15:56;1.47;;;1.37;;
8604;SDS011;4340;52.516;13.468;2022-09-03T14:18:33;3.20;;;1.50;;
8604;SDS011;4340;52.516;13.468;2022-09-03T14:21:04;2.53;;;1.50;;
8604;SDS011;4340;52.516;13.468;2022-09-03T14:23:35;4.33;;;2.03;;
8604;SDS011;4340;52.516;13.468;2022-09-03T14:26:14;9.20;;;1.80;;
8604;SDS011;4340;52.516;13.468;2022-09-03T14:28:45;2.37;;;1.77;;
8604;SDS011;4340;52.516;13.468;2022-09-03T14:31:15;2.07;;;1.87;;
8604;SDS011;4340;52.516;13.468;2022-09-03T14:33:50;1.90;;;1.80;;
8604;SDS011;4340;52.516;13.468;2022-09-03T14:36:25;1.50;;;1.37;;
8604;SDS011;4340;52.516;13.468;2022-09-03T14:39:10;2.10;;;1.60;;
8604;SDS011;4340;52.516;13.468;2022-09-03T14:42:09;1.60;;;1.50;;
8604;SDS011;4340;52.516;13.468;2022-09-03T14:48:03;3.00;;;1.70;;
8604;SDS011;4340;52.516;13.468;2022-09-03T14:50:48;5.80;;;1.87;;
8604;SDS011;4340;52.516;13.468;2022-09-03T14:53:29;1.50;;;1.50;;
8604;SDS011;4340;52.516;13.468;2022-09-03T14:56:16;2.70;;;2.00;;
8604;SDS011;4340;52.516;13.468;2022-09-03T14:59:09;1.67;;;1.57;;
8604;SDS011;4340;52.516;13.468;2022-09-03T15:02:06;3.53;;;1.80;;
8604;SDS011;4340;52.516;13.468;2022-09-03T15:04:58;1.50;;;1.50;;
8604;SDS011;4340;52.516;13.468;2022-09-03T15:07:37;1.87;;;1.77;;
8604;SDS011;4340;52.516;13.468;2022-09-03T15:10:11;4.70;;;1.90;;
8604;SDS011;4340;52.516;13.468;2022-09-03T15:12:47;3.23;;;2.03;;
8604;SDS011;4340;52.516;13.468;2022-09-03T15:15:17;2.50;;;1.73;;
8604;SDS011;4340;52.516;13.468;2022-09-03T15:18:01;2.87;;;2.10;;
8604;SDS011;4340;52.516;13.468;2022-09-03T15:20:41;2.47;;;2.27;;
8604;SDS011;4340;52.516;13.468;2022-09-03T15:23:24;8.23;;;2.17;;
8604;SDS011;4340;52.516;13.468;2022-09-03T15:29:16;4.67;;;1.87;;
8604;SDS011;4340;52.516;13.468;2022-09-03T15:31:57;1.97;;;1.70;;
8604;SDS011;4340;52.516;13.468;2022-09-03T15:34:47;1.80;;;1.70;;
8604;SDS011;4340;52.516;13.468;2022-09-03T15:37:24;3.27;;;2.47;;
8604;SDS011;4340;52.516;13.468;2022-09-03T15:39:57;2.03;;;1.83;;
8604;SDS011;4340;52.516;13.468;2022-09-03T15:42:27;1.83;;;1.73;;
8604;SDS011;4340;52.516;13.468;2022-09-03T15:44:59;3.03;;;1.73;;
8604;SDS011;4340;52.516;13.468;2022-09-03T15:47:31;2.90;;;2.17;;
8604;SDS011;4340;52.516;13.468;2022-09-03T15:50:09;6.70;;;2.10;;
8604;SDS011;4340;52.516;13.468;2022-09-03T15:52:46;2.23;;;2.13;;
8604;SDS011;4340;52.516;13.468;2022-09-03T15:55:22;2.30;;;2.17;;
8604;SDS011;4340;52.516;13.468;2022-09-03T15:57:57;2.10;;;2.00;;
8604;SDS011;4340;52.516;13.468;2022-09-03T16:00:33;2.30;;;2.20;;
8604;SDS011;4340;52.516;13.468;2022-09-03T16:03:18;3.63;;;2.17;;
8604;SDS011;4340;52.516;13.468;2022-09-03T16:05:59;3.47;;;3.17;;
8604;SDS011;4340;52.516;13.468;2022-09-03T16:08:31;3.13;;;2.03;;
8604;SDS011;4340;52.516;13.468;2022-09-03T16:11:06;2.13;;;2.00;;
8604;SDS011;4340;52.516;13.468;2022-09-03T16:16:27;3.07;;;2.23;;
8604;SDS011;4340;52.516;13.468;2022-09-03T16:18:59;5.60;;;3.00;;
8604;SDS011;4340;52.516;13.468;2022-09-03T16:21:34;5.37;;;2.67;;
8604;SDS011;4340;52.516;13.468;2022-09-03T16:24:04;2.50;;;2.30;;
8604;SDS011;4340;52.516;13.468;2022-09-03T16:26:41;3.00;;;2.70;;
8604;SDS011;4340;52.516;13.468;2022-09-03T16:29:14;3.03;;;2.63;;
8604;SDS011;4340;52.516;13.468;2022-09-03T16:31:48;2.60;;;2.50;;
8604;SDS011;4340;52.516;13.468;2022-09-03T16:34:28;3.30;;;3.10;;
8604;SDS011;4340;52.516;13.468;2022-09-03T16:37:05;4.27;;;2.40;;
8604;SDS011;4340;52.516;13.468;2022-09-03T16:39:44;8.00;;;2.40;;
8604;SDS011;4340;52.516;13.468;2022-09-03T16:42:20;2.93;;;2.73;;
8604;SDS011;4340;52.516;13.468;2022-09-03T16:44:54;4.30;;;2.60;;
8604;SDS011;4340;52.516;13.468;2022-09-03T16:47:32;4.93;;;2.57;;